Aviation Digital Data Service (ADDS)

Output produced by TAFs form (1122 UTC 31 October 2014)
found at http://aviationweather.gov/adds/tafs/
 
KTUS 310520Z 3106/0106 17004KT P6SM SCT200 
     FM310800 14007KT P6SM BKN200 
     FM311900 18012KT P6SM SCT120 BKN200 
     FM010300 16006KT P6SM FEW120 BKN200